Time;durP1;ratioP1;P1;durP2;ratioP2;P2;SDS_P1;SDS_P2;PMS_P1;PMS_P2;Temp;Humidity;BMP_temperature;BMP_pressure;BME280_temperature;BME280_humidity;BME280_pressure;Samples;Min_cycle;Max_cycle;Signal;HPM_P1;HPM_P2
2022/07/02 00:00:55;;;;;;;6.90;3.13;;;;;;;15.52;68.13;101932.00;3568669;40;20411;-64
2022/07/02 00:03:31;;;;;;;7.30;2.90;;;;;;;15.46;68.59;101926.97;3567770;40;20142;-65
2022/07/02 00:06:01;;;;;;;7.47;2.60;;;;;;;15.41;68.04;101928.25;3568549;40;20076;-64
2022/07/02 00:08:29;;;;;;;4.28;2.67;;;;;;;15.43;67.97;101935.31;3570187;40;20332;-65
2022/07/02 00:10:57;;;;;;;10.43;3.22;;;;;;;15.27;68.28;101899.34;3569133;40;20354;-64
2022/07/02 00:13:27;;;;;;;7.13;3.17;;;;;;;15.43;68.11;101931.72;3572349;40;20127;-65
2022/07/02 00:15:54;;;;;;;7.18;3.10;;;;;;;15.45;68.57;101929.81;3570259;40;20119;-65
2022/07/02 00:18:21;;;;;;;13.93;3.22;;;;;;;15.39;68.51;101931.06;3570028;40;20041;-65
2022/07/02 00:20:47;;;;;;;6.68;2.88;;;;;;;15.26;68.86;101905.75;3569788;40;20079;-66
2022/07/02 00:23:14;;;;;;;5.90;3.05;;;;;;;15.28;69.30;101912.78;3570601;40;20068;-64
2022/07/02 00:25:52;;;;;;;6.47;3.30;;;;;;;15.32;69.30;101919.75;3570114;40;20442;-64
2022/07/02 00:28:22;;;;;;;4.53;3.05;;;;;;;15.30;69.32;101915.41;3569114;40;20071;-65
2022/07/02 00:30:48;;;;;;;8.73;3.28;;;;;;;15.27;68.76;101915.59;3569908;40;20060;-65
2022/07/02 00:33:16;;;;;;;5.00;3.00;;;;;;;15.24;69.63;101918.50;3571358;40;20041;-65
2022/07/02 00:35:44;;;;;;;9.68;3.03;;;;;;;15.19;70.19;101921.50;3568441;40;20060;-65
2022/07/02 00:38:10;;;;;;;6.63;3.00;;;;;;;15.13;69.80;101921.91;3569325;40;20060;-65
2022/07/02 00:40:38;;;;;;;5.32;3.10;;;;;;;15.07;70.72;101925.88;3570959;40;20405;-64
2022/07/02 00:43:03;;;;;;;6.90;3.00;;;;;;;15.03;70.79;101929.75;3568995;40;20161;-64
2022/07/02 00:45:34;;;;;;;6.90;3.10;;;;;;;14.98;71.15;101931.84;3570601;40;20675;-65
2022/07/02 00:48:01;;;;;;;6.22;3.17;;;;;;;14.91;71.38;101933.22;3567237;40;20364;-64
2022/07/02 00:50:28;;;;;;;4.20;2.92;;;;;;;14.89;71.41;101928.84;3570648;40;20072;-64
2022/07/02 00:52:53;;;;;;;3.92;2.80;;;;;;;14.84;71.74;101923.72;3568724;40;20048;-65
2022/07/02 00:55:19;;;;;;;5.03;2.65;;;;;;;14.83;71.29;101930.09;3571017;40;20380;-65
2022/07/02 00:57:48;;;;;;;4.88;2.80;;;;;;;14.67;71.23;101899.53;3569849;40;20071;-64
2022/07/02 01:00:19;;;;;;;4.18;2.55;;;;;;;14.73;71.48;101921.69;3572356;40;20298;-65
2022/07/02 01:02:47;;;;;;;5.50;2.70;;;;;;;14.73;71.64;101920.81;3568868;40;20369;-65
2022/07/02 01:05:19;;;;;;;4.32;2.40;;;;;;;14.70;71.71;101918.28;3567879;40;20113;-64
2022/07/02 01:10:16;;;;;;;4.38;2.80;;;;;;;14.66;71.87;101909.50;3572629;40;20492;-64
2022/07/02 01:10:52;;;;;;;5.72;2.50;;;;;;;14.67;71.86;101921.19;3571116;40;20066;-64
2022/07/02 01:13:18;;;;;;;5.82;2.83;;;;;;;14.66;72.02;101919.47;3570107;40;20053;-64
2022/07/02 01:15:44;;;;;;;6.43;2.75;;;;;;;14.63;71.99;101912.41;3569390;40;20056;-65
2022/07/02 01:18:13;;;;;;;4.47;2.40;;;;;;;14.61;72.03;101906.19;3568132;40;20253;-65
2022/07/02 01:20:38;;;;;;;3.00;2.45;;;;;;;14.60;72.37;101913.44;3567585;40;20063;-63
2022/07/02 01:23:04;;;;;;;5.07;2.75;;;;;;;14.59;72.28;101913.56;3557715;40;20069;-64
2022/07/02 01:25:29;;;;;;;6.82;2.67;;;;;;;14.56;72.68;101925.44;3570756;40;20380;-64
2022/07/02 01:27:55;;;;;;;5.82;2.70;;;;;;;14.55;72.55;101914.69;3570579;40;20379;-64
2022/07/02 01:30:21;;;;;;;5.32;2.80;;;;;;;14.52;72.62;101909.47;3569429;40;20068;-63
2022/07/02 01:32:47;;;;;;;4.82;2.42;;;;;;;14.51;72.68;101916.72;3569317;40;20087;-64
2022/07/02 01:35:12;;;;;;;4.80;2.70;;;;;;;14.50;72.90;101917.66;3570464;40;21195;-64
2022/07/02 01:37:40;;;;;;;4.72;2.50;;;;;;;14.46;72.82;101918.81;3572097;40;20064;-63
2022/07/02 01:40:07;;;;;;;3.58;2.55;;;;;;;14.50;72.93;101916.78;3570875;40;20064;-64
2022/07/02 01:42:33;;;;;;;5.65;2.80;;;;;;;14.49;72.87;101920.44;3569666;40;20093;-64
2022/07/02 01:44:59;;;;;;;4.85;2.75;;;;;;;14.46;72.92;101921.53;3568584;40;20048;-63
2022/07/02 01:47:25;;;;;;;3.72;2.67;;;;;;;14.45;73.00;101922.47;3568785;40;20056;-64
2022/07/02 01:49:50;;;;;;;3.80;2.08;;;;;;;14.42;73.17;101919.06;3568676;40;20060;-64
2022/07/02 01:52:16;;;;;;;7.95;2.80;;;;;;;14.37;73.42;101920.22;3572546;40;20056;-64
2022/07/02 01:54:45;;;;;;;4.05;2.30;;;;;;;14.01;73.25;101855.69;3570864;40;20287;-64
2022/07/02 01:57:13;;;;;;;5.13;2.47;;;;;;;14.19;73.46;101888.88;3569860;40;20162;-64
2022/07/02 01:59:39;;;;;;;3.67;2.50;;;;;;;14.34;73.49;101920.41;3571576;40;20060;-64
2022/07/02 02:02:06;;;;;;;4.68;2.80;;;;;;;14.35;73.58;101918.56;3569773;40;20224;-63
2022/07/02 02:04:32;;;;;;;5.25;2.90;;;;;;;14.35;73.22;101915.88;3571758;40;20056;-64
2022/07/02 02:06:58;;;;;;;3.95;2.80;;;;;;;14.35;73.23;101915.88;3571398;40;20060;-64
2022/07/02 02:09:24;;;;;;;4.38;2.72;;;;;;;14.33;73.54;101913.25;3572376;40;20415;-64
2022/07/02 02:11:49;;;;;;;4.47;2.83;;;;;;;14.32;73.05;101921.47;3571211;40;20067;-63
2022/07/02 02:14:16;;;;;;;5.60;3.05;;;;;;;14.29;73.67;101911.69;3561276;40;20316;-64
2022/07/02 02:16:42;;;;;;;5.05;2.75;;;;;;;14.32;73.86;101916.06;3574018;40;20052;-64
2022/07/02 02:19:08;;;;;;;3.40;2.90;;;;;;;14.33;73.98;101909.69;3570880;40;20064;-64
2022/07/02 02:21:34;;;;;;;5.43;2.83;;;;;;;14.31;73.65;101909.78;3571133;40;20048;-64
2022/07/02 02:24:00;;;;;;;5.18;2.90;;;;;;;14.30;73.69;101908.06;3570977;40;20068;-64
2022/07/02 02:26:26;;;;;;;5.18;3.03;;;;;;;14.33;73.81;101907.84;3568749;40;20075;-64
2022/07/02 02:28:53;;;;;;;5.45;2.63;;;;;;;14.37;73.52;101914.81;3569596;40;20415;-63
2022/07/02 02:31:20;;;;;;;4.60;2.75;;;;;;;14.40;72.96;101913.78;3568671;40;20068;-64
2022/07/02 02:33:45;;;;;;;5.10;2.97;;;;;;;14.43;72.83;101919.00;3571089;40;20065;-63
2022/07/02 02:36:11;;;;;;;7.13;3.33;;;;;;;14.47;72.79;101919.69;3567859;40;20095;-64
2022/07/02 02:38:37;;;;;;;5.10;3.08;;;;;;;14.39;72.53;101890.38;3569862;40;20057;-63
2022/07/02 02:41:07;;;;;;;5.20;2.97;;;;;;;14.58;72.03;101901.84;3566231;40;20335;-64
2022/07/02 02:43:35;;;;;;;6.97;3.50;;;;;;;14.69;72.27;101914.72;3568530;40;20052;-64
2022/07/02 02:46:03;;;;;;;8.52;2.90;;;;;;;14.77;72.36;101911.53;3567704;40;20077;-64
2022/07/02 02:48:29;;;;;;;5.32;3.10;;;;;;;14.82;71.94;101912.13;3570153;40;20056;-64
2022/07/02 02:50:58;;;;;;;8.02;3.13;;;;;;;14.66;71.66;101876.16;3569047;40;20119;-64
2022/07/02 02:53:24;;;;;;;3.92;2.50;;;;;;;14.87;70.71;101912.69;3568553;40;20065;-64
2022/07/02 02:55:51;;;;;;;5.47;3.10;;;;;;;14.83;71.07;101909.31;3568556;40;20049;-64
2022/07/02 02:58:18;;;;;;;4.40;2.92;;;;;;;14.87;71.21;101909.97;3568390;40;20052;-64
2022/07/02 03:00:43;;;;;;;6.35;2.97;;;;;;;14.94;70.42;101918.59;3566814;40;20096;-65
2022/07/02 03:03:09;;;;;;;6.95;3.13;;;;;;;14.91;70.33;101919.69;3567073;40;20080;-64
2022/07/02 03:05:35;;;;;;;4.22;2.60;;;;;;;14.31;69.72;101822.38;3568833;40;20060;-64
2022/07/02 03:08:00;;;;;;;7.03;3.60;;;;;;;14.81;70.55;101913.06;3567487;40;20071;-65
2022/07/02 03:10:26;;;;;;;6.60;3.05;;;;;;;14.74;71.14;101901.75;3570148;40;20052;-65
2022/07/02 03:12:52;;;;;;;8.45;3.00;;;;;;;14.77;70.26;101922.34;3570861;40;20091;-63
2022/07/02 03:15:18;;;;;;;9.38;2.90;;;;;;;14.77;70.64;101925.94;3571986;40;20777;-64
2022/07/02 03:17:43;;;;;;;6.05;3.20;;;;;;;14.74;70.58;101933.38;3571204;40;20060;-63
2022/07/02 03:20:10;;;;;;;8.35;3.33;;;;;;;14.70;70.59;101937.25;3568150;40;20076;-64
2022/07/02 03:22:35;;;;;;;6.88;3.05;;;;;;;14.66;70.73;101941.13;3570181;40;20328;-64
2022/07/02 03:25:01;;;;;;;6.07;2.78;;;;;;;14.63;70.78;101937.63;3571111;40;20063;-64
2022/07/02 03:27:27;;;;;;;6.97;3.00;;;;;;;14.64;71.50;101938.47;3571310;40;20064;-64
2022/07/02 03:29:53;;;;;;;6.35;3.03;;;;;;;14.59;71.39;101941.47;3571780;40;20068;-65
2022/07/02 03:32:20;;;;;;;5.90;2.95;;;;;;;14.57;71.20;101938.00;3572480;40;20049;-64
2022/07/02 03:34:46;;;;;;;5.68;3.20;;;;;;;14.57;71.25;101946.09;3574111;40;20075;-63
2022/07/02 03:37:12;;;;;;;4.20;2.60;;;;;;;14.59;71.63;101944.19;3562250;40;20419;-64
2022/07/02 03:39:38;;;;;;;6.68;3.35;;;;;;;14.61;71.17;101954.91;3572928;40;20049;-64
2022/07/02 03:42:04;;;;;;;4.97;2.83;;;;;;;14.60;71.03;101948.63;3572251;40;21593;-64
2022/07/02 03:44:30;;;;;;;5.47;3.03;;;;;;;14.62;70.66;101954.81;3573496;40;20056;-63
2022/07/02 03:46:55;;;;;;;3.63;2.85;;;;;;;14.64;70.86;101957.44;3571939;40;20465;-64
2022/07/02 03:49:21;;;;;;;6.35;3.05;;;;;;;14.63;70.49;101948.44;3571797;40;20060;-64
2022/07/02 03:51:46;;;;;;;6.53;3.50;;;;;;;14.69;70.54;101959.88;3560671;40;20384;-63
2022/07/02 03:54:12;;;;;;;3.80;2.60;;;;;;;14.67;70.42;101959.94;3560920;40;20160;-63
2022/07/02 03:56:37;;;;;;;7.22;2.70;;;;;;;14.53;70.15;101928.31;3573947;40;20100;-63
2022/07/02 03:59:03;;;;;;;3.70;2.90;;;;;;;14.76;70.78;101948.56;3571358;40;20066;-63
2022/07/02 04:01:29;;;;;;;7.00;2.67;;;;;;;14.80;70.42;101949.25;3575155;40;20057;-63
2022/07/02 04:03:54;;;;;;;4.85;2.97;;;;;;;14.79;70.57;101948.38;3567220;40;20080;-64
2022/07/02 04:06:20;;;;;;;7.07;2.83;;;;;;;14.82;70.21;101952.72;3568798;40;20071;-65
2022/07/02 04:08:45;;;;;;;6.13;2.92;;;;;;;14.78;70.19;101957.47;3571964;40;20060;-64
2022/07/02 04:11:11;;;;;;;4.53;3.10;;;;;;;14.74;70.18;101965.84;3575936;40;20317;-65
2022/07/02 04:13:37;;;;;;;5.05;2.88;;;;;;;14.74;70.70;101957.72;3568371;40;20060;-64
2022/07/02 04:16:02;;;;;;;7.80;3.40;;;;;;;14.73;70.72;101953.28;3574761;40;20371;-64
2022/07/02 04:18:28;;;;;;;5.72;2.65;;;;;;;14.70;70.45;101964.31;3570140;40;20115;-65
2022/07/02 04:20:54;;;;;;;8.80;3.50;;;;;;;14.65;70.26;101950.16;3577253;40;20056;-65
2022/07/02 04:23:19;;;;;;;8.93;3.30;;;;;;;14.67;70.07;101959.09;3575679;40;20405;-65
2022/07/02 04:25:45;;;;;;;5.75;3.03;;;;;;;14.68;69.96;101958.09;3577132;40;20045;-65
2022/07/02 04:28:12;;;;;;;5.85;2.92;;;;;;;14.68;70.69;101955.41;3578692;40;20055;-65
2022/07/02 04:30:38;;;;;;;8.68;3.05;;;;;;;14.69;69.99;101951.75;3572903;40;20059;-65
2022/07/02 04:33:03;;;;;;;5.75;3.20;;;;;;;14.73;70.26;101958.72;3567827;40;20060;-65
2022/07/02 04:35:30;;;;;;;6.75;3.15;;;;;;;14.76;70.02;101953.09;3568701;40;20072;-64
2022/07/02 04:37:55;;;;;;;7.68;3.08;;;;;;;14.81;70.01;101950.97;3571187;40;20166;-65
2022/07/02 04:40:21;;;;;;;4.90;2.83;;;;;;;14.79;69.33;101942.09;3570874;40;20061;-64
2022/07/02 04:42:47;;;;;;;7.47;2.92;;;;;;;14.90;69.38;101955.81;3573884;40;20061;-65
2022/07/02 04:45:12;;;;;;;4.88;3.15;;;;;;;14.96;69.01;101958.16;3575938;40;20048;-64
2022/07/02 04:47:38;;;;;;;4.40;2.97;;;;;;;15.02;69.24;101965.03;3573264;40;20288;-64
2022/07/02 04:50:04;;;;;;;5.47;3.58;;;;;;;15.07;69.15;101958.38;3569973;40;20056;-65
2022/07/02 04:52:29;;;;;;;7.63;3.60;;;;;;;15.09;69.47;101951.00;3575222;40;20123;-64
2022/07/02 04:54:55;;;;;;;4.65;2.90;;;;;;;15.11;68.71;101948.19;3570639;40;20399;-64
2022/07/02 04:57:20;;;;;;;8.18;3.58;;;;;;;15.15;69.29;101951.59;3573086;40;20059;-63
2022/07/02 04:59:46;;;;;;;5.60;3.13;;;;;;;15.17;68.96;101963.22;3574846;40;20106;-64
2022/07/02 05:02:12;;;;;;;7.75;3.50;;;;;;;15.20;69.22;101963.00;3574360;40;20402;-64
2022/07/02 05:04:38;;;;;;;5.60;3.25;;;;;;;15.22;68.82;101963.75;3574731;40;20069;-65
2022/07/02 05:07:04;;;;;;;4.95;3.30;;;;;;;14.50;68.91;101839.19;3571013;40;20096;-65
2022/07/02 05:09:30;;;;;;;6.25;3.42;;;;;;;15.28;69.64;101960.66;3572875;40;20517;-65
2022/07/02 05:11:55;;;;;;;10.23;3.42;;;;;;;15.34;69.49;101954.84;3574934;40;20387;-65
2022/07/02 05:14:21;;;;;;;4.65;3.13;;;;;;;15.38;68.98;101953.72;3575380;40;20079;-65
2022/07/02 05:16:46;;;;;;;6.85;3.70;;;;;;;15.42;68.59;101960.66;3577582;40;20130;-65
2022/07/02 05:19:12;;;;;;;6.25;3.13;;;;;;;15.24;68.49;101919.38;3574155;40;20056;-65
2022/07/02 05:21:40;;;;;;;7.22;3.20;;;;;;;15.50;68.65;101949.31;3569482;40;20048;-65
2022/07/02 05:24:06;;;;;;;4.82;2.90;;;;;;;15.52;68.19;101950.97;3569838;40;20089;-65
2022/07/02 05:26:32;;;;;;;4.60;2.53;;;;;;;15.63;67.79;101960.25;3572610;40;20053;-65
2022/07/02 05:28:57;;;;;;;4.57;3.13;;;;;;;15.69;67.72;101965.31;3571940;40;20415;-65
2022/07/02 05:31:23;;;;;;;6.05;2.60;;;;;;;15.75;67.99;101965.75;3572421;40;20053;-65
2022/07/02 05:33:48;;;;;;;4.50;2.45;;;;;;;15.78;67.53;101964.69;3562028;40;20068;-65
2022/07/02 05:36:14;;;;;;;3.05;2.60;;;;;;;15.84;67.07;101969.72;3562694;40;20063;-66
2022/07/02 05:38:40;;;;;;;6.10;2.50;;;;;;;15.88;67.35;101965.81;3564684;40;20068;-65
2022/07/02 05:41:06;;;;;;;4.30;2.88;;;;;;;15.94;66.44;101968.13;3568804;40;20060;-64
2022/07/02 05:43:32;;;;;;;3.88;2.42;;;;;;;16.00;65.97;101973.16;3571027;40;20118;-64
2022/07/02 05:45:58;;;;;;;5.63;2.40;;;;;;;16.08;66.12;101974.47;3573361;40;20379;-65
2022/07/02 05:48:23;;;;;;;5.97;2.38;;;;;;;16.13;65.57;101975.91;3568765;40;20600;-65
2022/07/02 05:50:49;;;;;;;6.22;2.55;;;;;;;15.95;65.62;101934.66;3571900;40;20057;-66
2022/07/02 05:53:14;;;;;;;5.93;2.33;;;;;;;16.31;64.86;101981.97;3571008;40;20052;-65
2022/07/02 05:55:40;;;;;;;4.93;2.42;;;;;;;16.40;65.39;101967.78;3570707;40;20060;-65
2022/07/02 05:58:06;;;;;;;5.18;2.63;;;;;;;16.49;63.90;101977.09;3571220;40;20050;-65
2022/07/02 06:00:31;;;;;;;3.58;2.08;;;;;;;16.63;62.12;101984.31;3575860;40;20379;-65
2022/07/02 06:02:57;;;;;;;4.63;2.20;;;;;;;16.76;60.92;101985.25;3571384;40;20423;-65
2022/07/02 06:08:06;;;;;;;3.30;1.88;;;;;;;16.98;60.16;101978.31;3570644;40;20040;-64
2022/07/02 06:10:32;;;;;;;4.88;1.85;;;;;;;17.08;58.83;101974.81;3572842;40;20065;-63
2022/07/02 06:12:58;;;;;;;6.00;1.88;;;;;;;17.21;58.63;101974.81;3578813;40;20063;-64
2022/07/02 06:15:24;;;;;;;4.15;1.75;;;;;;;17.35;57.84;101982.00;3571727;40;20706;-65
2022/07/02 06:17:49;;;;;;;4.97;2.20;;;;;;;17.48;56.66;101982.84;3572362;40;20052;-64
2022/07/02 06:20:16;;;;;;;8.25;4.63;;;;;;;17.64;56.81;101985.31;3562679;40;20051;-64
2022/07/02 06:22:41;;;;;;;3.38;1.70;;;;;;;17.79;56.01;101981.50;3574815;40;20053;-64
2022/07/02 06:25:09;;;;;;;3.22;1.60;;;;;;;18.01;54.82;101983.47;3568012;40;20368;-64
2022/07/02 06:27:36;;;;;;;6.75;1.90;;;;;;;18.21;56.16;101976.56;3572914;40;20053;-65
2022/07/02 06:30:04;;;;;;;3.65;1.90;;;;;;;18.39;55.54;101970.69;3562499;40;20057;-64
2022/07/02 06:32:31;;;;;;;4.88;1.27;;;;;;;18.51;52.82;101986.06;3567950;40;20068;-64
2022/07/02 06:34:57;;;;;;;4.68;1.40;;;;;;;18.58;52.47;101991.91;3573791;40;20056;-64
2022/07/02 06:37:24;;;;;;;4.00;1.35;;;;;;;18.60;53.58;101988.09;3570368;40;20057;-64
2022/07/02 06:39:50;;;;;;;6.07;1.90;;;;;;;18.66;53.83;101989.47;3572232;40;20416;-64
2022/07/02 06:42:19;;;;;;;3.00;1.58;;;;;;;18.73;54.37;101988.91;3570573;40;20311;-64
2022/07/02 06:44:47;;;;;;;2.05;1.08;;;;;;;18.82;53.49;101987.31;3571347;40;20077;-64
2022/07/02 06:47:14;;;;;;;1.73;1.30;;;;;;;19.02;53.14;101975.72;3573176;40;20061;-64
2022/07/02 06:49:41;;;;;;;4.07;1.42;;;;;;;19.14;52.26;101973.00;3567329;40;20308;-65
2022/07/02 06:52:08;;;;;;;4.35;1.63;;;;;;;19.32;51.72;101976.13;3570995;40;20055;-64
2022/07/02 06:54:35;;;;;;;2.42;1.20;;;;;;;19.48;49.96;101979.34;3570632;40;20322;-64
2022/07/02 06:57:03;;;;;;;2.65;1.35;;;;;;;19.59;49.75;101987.50;3569824;40;20061;-65
2022/07/02 06:59:29;;;;;;;3.03;1.10;;;;;;;19.75;50.75;101975.38;3570557;40;21042;-65
2022/07/02 07:01:54;;;;;;;2.58;0.70;;;;;;;19.90;48.05;101974.09;3574488;40;20053;-65
2022/07/02 07:04:20;;;;;;;4.97;1.02;;;;;;;20.07;47.73;101980.88;3569958;40;20071;-64
2022/07/02 07:06:52;;;;;;;2.90;0.70;;;;;;;20.22;47.24;101989.66;3572777;40;20060;-65
2022/07/02 07:09:18;;;;;;;3.22;1.05;;;;;;;20.40;45.69;101983.50;3569269;40;20057;-65
2022/07/02 07:11:44;;;;;;;1.55;0.93;;;;;;;20.55;46.00;101986.84;3568605;40;20404;-65
2022/07/02 07:14:10;;;;;;;2.83;1.10;;;;;;;20.67;45.32;101976.69;3567469;40;20057;-65
2022/07/02 07:16:36;;;;;;;3.00;1.00;;;;;;;20.79;43.97;101977.50;3561954;40;20325;-65
2022/07/02 07:19:05;;;;;;;2.88;0.90;;;;;;;20.87;45.03;101980.44;3569374;40;20143;-65
2022/07/02 07:21:32;;;;;;;10.75;3.47;;;;;;;20.84;44.22;101969.78;3566997;40;20052;-65
2022/07/02 07:23:57;;;;;;;5.45;1.48;;;;;;;21.15;45.30;101988.94;3570752;40;20063;-65
2022/07/02 07:26:23;;;;;;;3.72;1.13;;;;;;;21.21;44.27;101989.25;3570804;40;20064;-65
2022/07/02 07:28:49;;;;;;;1.88;1.00;;;;;;;21.31;44.96;101982.00;3559999;40;20098;-66
2022/07/02 07:31:19;;;;;;;2.55;1.00;;;;;;;21.53;43.86;101972.78;3566838;40;20084;-66
2022/07/02 07:33:47;;;;;;;2.78;0.80;;;;;;;21.63;43.48;101977.38;3571301;40;20360;-65
2022/07/02 07:36:13;;;;;;;2.83;0.95;;;;;;;21.81;43.60;101978.44;3568763;40;20044;-65
2022/07/02 07:38:39;;;;;;;2.75;1.13;;;;;;;21.87;43.71;101977.88;3567495;40;20074;-66
2022/07/02 07:41:05;;;;;;;2.72;1.00;;;;;;;21.74;43.10;101956.25;3567740;40;20056;-65
2022/07/02 07:43:31;;;;;;;1.38;0.85;;;;;;;22.02;41.72;101992.91;3566553;40;20069;-65
2022/07/02 07:45:56;;;;;;;6.15;1.20;;;;;;;22.11;42.87;101998.56;3568343;40;20061;-66
2022/07/02 07:48:22;;;;;;;5.63;0.98;;;;;;;22.23;42.79;101989.22;3567341;40;20056;-65
2022/07/02 07:50:48;;;;;;;3.42;1.23;;;;;;;22.43;42.04;101990.97;3567195;40;20314;-66
2022/07/02 07:53:14;;;;;;;1.23;1.08;;;;;;;22.50;42.20;101987.66;3566910;40;20068;-66
2022/07/02 07:55:39;;;;;;;2.58;1.02;;;;;;;22.52;42.37;101977.41;3573763;40;20056;-66
2022/07/02 07:58:05;;;;;;;3.13;1.30;;;;;;;22.72;42.62;101979.13;3568316;40;20064;-65
2022/07/02 08:00:31;;;;;;;2.60;0.80;;;;;;;22.76;41.60;101983.31;3569145;40;20950;-66
2022/07/02 08:02:57;;;;;;;2.33;0.90;;;;;;;22.87;41.16;101980.41;3570596;40;20306;-66
2022/07/02 08:05:23;;;;;;;1.77;0.50;;;;;;;22.87;39.42;101985.91;3568147;40;20064;-67
2022/07/02 08:07:49;;;;;;;3.35;0.93;;;;;;;22.82;39.73;101949.81;3569525;40;20060;-65
2022/07/02 08:10:16;;;;;;;3.50;0.95;;;;;;;23.24;39.71;101981.50;3567480;40;20057;-66
2022/07/02 08:12:41;;;;;;;4.40;0.95;;;;;;;23.31;39.03;101975.28;3568152;40;20147;-66
2022/07/02 08:15:09;;;;;;;4.35;1.02;;;;;;;23.44;40.14;101974.03;3566694;40;20065;-66
2022/07/02 08:17:36;;;;;;;1.67;0.52;;;;;;;23.51;40.71;101969.69;3567102;40;20119;-67
2022/07/02 08:20:05;;;;;;;3.13;0.75;;;;;;;23.53;39.59;101976.78;3569849;40;20060;-67
2022/07/02 08:22:35;;;;;;;2.35;0.80;;;;;;;23.61;39.80;101973.25;3566657;40;20061;-67
2022/07/02 08:25:03;;;;;;;3.22;1.10;;;;;;;23.57;39.18;101975.44;3574831;40;20063;-67
2022/07/02 08:27:29;;;;;;;4.50;1.10;;;;;;;23.55;40.30;101962.88;3571708;40;20061;-67
2022/07/02 08:29:55;;;;;;;1.27;0.70;;;;;;;23.85;39.82;101965.34;3568861;40;20053;-66
2022/07/02 08:32:21;;;;;;;2.05;0.80;;;;;;;24.04;37.47;101952.50;3570689;40;20307;-67
2022/07/02 08:34:47;;;;;;;2.55;1.02;;;;;;;24.35;38.25;101958.47;3568932;40;20060;-65
2022/07/02 08:37:13;;;;;;;2.65;0.93;;;;;;;24.41;37.69;101968.88;3565534;40;20399;-68
2022/07/02 08:39:39;;;;;;;4.25;1.10;;;;;;;24.48;39.52;101960.84;3572343;40;20060;-68
2022/07/02 08:42:08;;;;;;;2.20;0.93;;;;;;;24.69;38.30;101963.28;3572031;40;20298;-65
2022/07/02 08:44:35;;;;;;;5.68;1.20;;;;;;;24.48;38.67;101933.34;3569803;40;20065;-67
2022/07/02 08:47:07;;;;;;;6.55;1.17;;;;;;;24.84;36.63;101958.06;3570984;40;20056;-66
2022/07/02 08:49:35;;;;;;;3.00;1.00;;;;;;;24.76;38.63;101940.47;3567390;40;20411;-66
2022/07/02 08:52:03;;;;;;;3.17;1.05;;;;;;;25.11;39.70;101959.78;3567766;40;20082;-66
2022/07/02 08:54:31;;;;;;;2.45;1.10;;;;;;;25.15;38.28;101964.84;3568957;40;20068;-65
2022/07/02 08:57:02;;;;;;;4.18;1.30;;;;;;;25.18;38.07;101955.38;3572003;40;20052;-67
2022/07/02 08:59:31;;;;;;;2.47;1.10;;;;;;;25.32;37.89;101952.03;3566937;40;20162;-66
2022/07/02 09:01:58;;;;;;;1.30;0.80;;;;;;;25.51;37.31;101959.19;3569827;40;20063;-65
2022/07/02 09:04:26;;;;;;;4.88;0.85;;;;;;;25.34;36.59;101913.31;3569685;40;20427;-65
2022/07/02 09:06:59;;;;;;;2.78;1.05;;;;;;;25.64;36.21;101959.56;3575394;40;20364;-66
2022/07/02 09:09:29;;;;;;;4.15;1.15;;;;;;;25.70;37.23;101944.28;3566289;40;20150;-65
2022/07/02 09:11:57;;;;;;;3.40;1.20;;;;;;;25.85;37.21;101944.53;3571851;40;20060;-66
2022/07/02 09:14:23;;;;;;;2.60;1.15;;;;;;;26.10;38.57;101938.03;3570017;40;20052;-68
2022/07/02 09:16:50;;;;;;;3.28;1.10;;;;;;;26.21;36.83;101916.69;3570677;40;20064;-66
2022/07/02 09:19:18;;;;;;;3.45;1.08;;;;;;;26.30;35.72;101930.31;3571273;40;20709;-65
2022/07/02 09:21:51;;;;;;;4.05;1.23;;;;;;;26.34;35.82;101939.09;3569588;40;20114;-65
2022/07/02 09:24:46;;;;;;;2.25;0.93;;;;;;;26.31;35.56;101903.59;3573684;40;20049;-66
2022/07/02 09:27:16;;;;;;;4.43;1.20;;;;;;;26.50;35.15;101922.56;3565888;40;20064;-65
2022/07/02 09:29:48;;;;;;;1.10;0.90;;;;;;;26.40;34.99;101927.38;3566778;40;20056;-66
2022/07/02 09:32:16;;;;;;;0.77;0.50;;;;;;;26.49;34.07;101922.75;3569499;40;20512;-66
2022/07/02 09:34:52;;;;;;;2.22;0.80;;;;;;;26.58;36.92;101918.97;3569447;40;20108;-66
2022/07/02 09:37:23;;;;;;;3.05;0.98;;;;;;;26.62;35.05;101909.31;3568907;40;20084;-65
2022/07/02 09:39:52;;;;;;;4.75;1.10;;;;;;;26.60;35.33;101911.38;3571250;40;20060;-64
2022/07/02 09:42:28;;;;;;;2.45;1.25;;;;;;;26.67;34.18;101922.56;3569612;40;20110;-64
2022/07/02 09:44:54;;;;;;;2.78;1.20;;;;;;;26.71;35.17;101908.25;3571424;40;20059;-64
2022/07/02 09:47:38;;;;;;;1.92;0.90;;;;;;;26.70;34.93;101902.91;3572452;40;20056;-65
2022/07/02 09:50:11;;;;;;;2.85;1.10;;;;;;;26.90;36.70;101898.75;3571163;40;20134;-65
2022/07/02 09:52:51;;;;;;;6.65;1.48;;;;;;;27.01;33.54;101892.81;3569776;40;20059;-65
2022/07/02 09:55:30;;;;;;;3.85;1.10;;;;;;;27.08;35.80;101892.97;3569970;40;20061;-64
2022/07/02 09:57:59;;;;;;;3.83;1.20;;;;;;;27.05;34.76;101891.47;3569678;40;20060;-64
2022/07/02 10:00:30;;;;;;;2.60;1.10;;;;;;;27.12;35.11;101897.13;3569563;40;20053;-66
2022/07/02 10:02:57;;;;;;;2.58;1.13;;;;;;;27.26;36.53;101890.88;3572716;40;20108;-64
2022/07/02 10:05:27;;;;;;;2.25;1.17;;;;;;;27.42;34.57;101884.41;3568855;40;20116;-64
2022/07/02 10:07:55;;;;;;;3.03;0.85;;;;;;;27.48;32.58;101889.22;3570441;40;20191;-64
2022/07/02 10:10:35;;;;;;;1.95;0.93;;;;;;;27.42;32.27;101891.84;3568832;40;20063;-66
2022/07/02 10:13:01;;;;;;;2.83;1.00;;;;;;;27.28;34.87;101868.63;3570774;40;20044;-66
2022/07/02 10:15:31;;;;;;;4.55;1.30;;;;;;;27.42;32.53;101889.09;3568326;40;20068;-64
2022/07/02 10:18:01;;;;;;;3.10;1.38;;;;;;;26.95;33.79;101881.63;3569210;40;20060;-66
2022/07/02 10:20:30;;;;;;;2.65;1.10;;;;;;;26.54;34.71;101882.56;3568982;40;20393;-65
2022/07/02 10:23:02;;;;;;;2.00;0.90;;;;;;;26.21;34.97;101864.31;3571868;40;20614;-65
2022/07/02 10:25:30;;;;;;;3.10;1.08;;;;;;;26.35;36.53;101880.16;3567998;40;20108;-64
2022/07/02 10:27:56;;;;;;;3.55;0.80;;;;;;;26.35;34.94;101869.13;3568884;40;20068;-64
2022/07/02 10:30:31;;;;;;;4.32;0.90;;;;;;;26.33;35.76;101873.97;3567846;40;20072;-64
2022/07/02 10:33:15;;;;;;;2.47;0.82;;;;;;;26.49;34.75;101875.88;3569481;40;20052;-65
2022/07/02 10:35:43;;;;;;;2.45;0.93;;;;;;;26.47;35.77;101869.63;3567243;40;20563;-65
2022/07/02 10:38:08;;;;;;;5.45;2.88;;;;;;;26.28;34.58;101868.94;3570792;40;20379;-64
2022/07/02 10:40:49;;;;;;;4.05;1.02;;;;;;;26.32;35.29;101866.72;3567651;40;20053;-65
2022/07/02 10:43:19;;;;;;;2.42;0.88;;;;;;;26.58;35.08;101872.94;3567324;40;20289;-64
2022/07/02 10:45:45;;;;;;;1.42;0.70;;;;;;;26.71;32.69;101868.78;3570675;40;20064;-64
2022/07/02 10:48:15;;;;;;;1.50;0.63;;;;;;;26.37;32.21;101872.56;3568557;40;20406;-64
2022/07/02 10:50:46;;;;;;;1.13;0.70;;;;;;;26.19;32.55;101869.13;3567992;40;20059;-64
2022/07/02 10:53:17;;;;;;;3.35;1.02;;;;;;;26.38;35.05;101863.25;3566958;40;20376;-64
2022/07/02 10:56:02;;;;;;;1.77;0.90;;;;;;;26.44;33.90;101859.81;3571260;40;20049;-64
2022/07/02 10:58:35;;;;;;;2.22;0.90;;;;;;;26.72;31.99;101853.94;3566930;40;20119;-64
2022/07/02 11:01:23;;;;;;;2.40;1.10;;;;;;;26.89;31.35;101852.84;3568473;40;20072;-64
2022/07/02 11:03:57;;;;;;;2.58;0.85;;;;;;;26.92;31.89;101832.31;3569804;40;20060;-65
2022/07/02 11:06:23;;;;;;;1.42;0.60;;;;;;;27.08;32.00;101865.38;3568935;40;20067;-65
2022/07/02 11:08:57;;;;;;;1.85;0.55;;;;;;;26.96;31.69;101856.63;3569149;40;20053;-66
2022/07/02 11:11:34;;;;;;;1.63;0.88;;;;;;;26.71;32.30;101849.47;3567314;40;20064;-64
2022/07/02 11:14:13;;;;;;;2.17;1.23;;;;;;;27.13;32.58;101856.56;3570975;40;20103;-65
2022/07/02 11:16:45;;;;;;;2.10;0.70;;;;;;;27.19;32.24;101855.91;3561943;40;20053;-66
2022/07/02 11:19:19;;;;;;;4.78;0.65;;;;;;;26.84;30.97;101852.53;3568653;40;20044;-65
2022/07/02 11:21:48;;;;;;;1.50;0.85;;;;;;;26.77;32.23;101851.53;3567285;40;20455;-65
2022/07/02 11:24:22;;;;;;;1.52;0.88;;;;;;;26.82;31.16;101849.09;3559714;40;20049;-66
2022/07/02 11:26:48;;;;;;;0.50;0.50;;;;;;;27.42;32.08;101847.66;3568689;40;20056;-66
2022/07/02 11:29:15;;;;;;;3.28;0.73;;;;;;;27.87;31.37;101838.59;3566704;40;20081;-66